sensor_id;sensor_type;location;lat;lon;timestamp;pressure;altitude;pressure_sealevel;temperature;humidity
16094;BME280;8151;47.824;12.092;2022-10-30T00:01:02;96794.78;;;17.27;58.04
16094;BME280;8151;47.824;12.092;2022-10-30T00:03:31;96802.78;;;17.27;57.94
16094;BME280;8151;47.824;12.092;2022-10-30T00:06:02;96807.50;;;17.25;57.94
16094;BME280;8151;47.824;12.092;2022-10-30T00:08:31;96797.22;;;17.22;57.98
16094;BME280;8151;47.824;12.092;2022-10-30T00:11:06;96792.47;;;17.17;58.07
16094;BME280;8151;47.824;12.092;2022-10-30T00:13:35;96786.69;;;17.13;58.19
16094;BME280;8151;47.824;12.092;2022-10-30T00:16:05;96797.81;;;17.10;58.22
16094;BME280;8151;47.824;12.092;2022-10-30T00:18:35;96784.81;;;17.07;58.27
16094;BME280;8151;47.824;12.092;2022-10-30T00:21:05;96779.25;;;17.02;58.54
16094;BME280;8151;47.824;12.092;2022-10-30T00:23:34;96789.53;;;16.99;58.42
16094;BME280;8151;47.824;12.092;2022-10-30T00:26:04;96783.31;;;16.98;58.53
16094;BME280;8151;47.824;12.092;2022-10-30T00:28:33;96784.16;;;16.99;58.35
16094;BME280;8151;47.824;12.092;2022-10-30T00:31:03;96786.66;;;17.00;58.32
16094;BME280;8151;47.824;12.092;2022-10-30T00:33:32;96787.47;;;17.01;58.34
16094;BME280;8151;47.824;12.092;2022-10-30T00:36:00;96775.13;;;17.00;58.19
16094;BME280;8151;47.824;12.092;2022-10-30T00:38:29;96776.59;;;17.02;58.16
16094;BME280;8151;47.824;12.092;2022-10-30T00:40:57;96775.75;;;17.02;58.19
16094;BME280;8151;47.824;12.092;2022-10-30T00:43:29;96771.25;;;17.02;58.15
16094;BME280;8151;47.824;12.092;2022-10-30T00:46:01;96776.59;;;17.02;58.11
16094;BME280;8151;47.824;12.092;2022-10-30T00:48:30;96781.94;;;17.02;58.11
16094;BME280;8151;47.824;12.092;2022-10-30T00:50:59;96777.59;;;17.01;58.02
16094;BME280;8151;47.824;12.092;2022-10-30T00:53:28;96776.97;;;16.99;58.04
16094;BME280;8151;47.824;12.092;2022-10-30T00:56:00;96773.47;;;16.99;57.90
16094;BME280;8151;47.824;12.092;2022-10-30T00:58:34;96771.63;;;16.99;58.04
16094;BME280;8151;47.824;12.092;2022-10-30T01:01:07;96771.00;;;16.97;58.06
16094;BME280;8151;47.824;12.092;2022-10-30T01:03:38;96771.38;;;16.94;58.05
16094;BME280;8151;47.824;12.092;2022-10-30T01:06:10;96767.91;;;16.93;58.08
16094;BME280;8151;47.824;12.092;2022-10-30T01:08:39;96772.44;;;16.93;58.10
16094;BME280;8151;47.824;12.092;2022-10-30T01:11:08;96762.53;;;16.93;57.99
16094;BME280;8151;47.824;12.092;2022-10-30T01:13:40;96764.41;;;16.93;57.89
16094;BME280;8151;47.824;12.092;2022-10-30T01:16:23;96766.25;;;16.92;57.91
16094;BME280;8151;47.824;12.092;2022-10-30T01:19:02;96761.31;;;16.89;58.10
16094;BME280;8151;47.824;12.092;2022-10-30T01:21:42;96759.84;;;16.87;57.99
16094;BME280;8151;47.824;12.092;2022-10-30T01:24:27;96765.19;;;16.87;58.14
16094;BME280;8151;47.824;12.092;2022-10-30T01:27:08;96761.69;;;16.86;58.04
16094;BME280;8151;47.824;12.092;2022-10-30T01:29:49;96759.84;;;16.87;57.94
16094;BME280;8151;47.824;12.092;2022-10-30T01:32:40;96758.38;;;16.84;57.99
16094;BME280;8151;47.824;12.092;2022-10-30T01:35:17;96753.25;;;16.83;58.01
16094;BME280;8151;47.824;12.092;2022-10-30T01:37:54;96756.28;;;16.80;57.94
16094;BME280;8151;47.824;12.092;2022-10-30T01:40:25;96757.72;;;16.76;58.07
16094;BME280;8151;47.824;12.092;2022-10-30T01:42:55;96747.22;;;16.74;58.23
16094;BME280;8151;47.824;12.092;2022-10-30T01:45:42;96748.44;;;16.71;58.17
16094;BME280;8151;47.824;12.092;2022-10-30T01:48:26;96753.97;;;16.70;58.04
16094;BME280;8151;47.824;12.092;2022-10-30T01:51:03;96748.63;;;16.70;58.05
16094;BME280;8151;47.824;12.092;2022-10-30T01:53:44;96745.16;;;16.69;58.07
16094;BME280;8151;47.824;12.092;2022-10-30T01:56:19;96749.84;;;16.67;58.04
16094;BME280;8151;47.824;12.092;2022-10-30T01:59:02;96750.25;;;16.64;58.27
16094;BME280;8151;47.824;12.092;2022-10-30T02:01:35;96744.28;;;16.62;58.17
16094;BME280;8151;47.824;12.092;2022-10-30T02:04:06;96757.00;;;16.60;58.12
16094;BME280;8151;47.824;12.092;2022-10-30T02:06:35;96753.72;;;16.58;58.13
16094;BME280;8151;47.824;12.092;2022-10-30T02:09:04;96747.09;;;16.54;58.47
16094;BME280;8151;47.824;12.092;2022-10-30T02:11:33;96738.66;;;16.50;58.45
16094;BME280;8151;47.824;12.092;2022-10-30T02:14:04;96735.75;;;16.45;58.61
16094;BME280;8151;47.824;12.092;2022-10-30T02:16:38;96739.63;;;16.43;58.50
16094;BME280;8151;47.824;12.092;2022-10-30T02:19:09;96740.88;;;16.40;58.62
16094;BME280;8151;47.824;12.092;2022-10-30T02:21:38;96734.69;;;16.40;58.70
16094;BME280;8151;47.824;12.092;2022-10-30T02:24:07;96729.94;;;16.35;58.88
16094;BME280;8151;47.824;12.092;2022-10-30T02:26:35;96739.78;;;16.34;58.81
16094;BME280;8151;47.824;12.092;2022-10-30T02:29:04;96730.94;;;16.34;58.84
16094;BME280;8151;47.824;12.092;2022-10-30T02:31:32;96729.13;;;16.34;58.81
16094;BME280;8151;47.824;12.092;2022-10-30T02:34:01;96742.47;;;16.34;58.81
16094;BME280;8151;47.824;12.092;2022-10-30T02:36:29;96734.66;;;16.33;58.62
16094;BME280;8151;47.824;12.092;2022-10-30T02:38:59;96732.59;;;16.35;58.52
16094;BME280;8151;47.824;12.092;2022-10-30T02:41:28;96722.56;;;16.37;58.58
16094;BME280;8151;47.824;12.092;2022-10-30T02:43:56;96726.22;;;16.36;58.34
16094;BME280;8151;47.824;12.092;2022-10-30T02:46:25;96732.41;;;16.37;58.49
16094;BME280;8151;47.824;12.092;2022-10-30T02:48:53;96722.75;;;16.36;58.39
16094;BME280;8151;47.824;12.092;2022-10-30T02:51:21;96712.88;;;16.36;58.50
16094;BME280;8151;47.824;12.092;2022-10-30T02:53:49;96717.22;;;16.37;58.38
16094;BME280;8151;47.824;12.092;2022-10-30T02:56:19;96719.88;;;16.37;58.40
16094;BME280;8151;47.824;12.092;2022-10-30T02:58:48;96720.06;;;16.36;58.30
16094;BME280;8151;47.824;12.092;2022-10-30T03:01:18;96717.41;;;16.36;58.56
16094;BME280;8151;47.824;12.092;2022-10-30T03:03:46;96727.06;;;16.37;58.54
16094;BME280;8151;47.824;12.092;2022-10-30T03:06:16;96720.88;;;16.36;58.60
16094;BME280;8151;47.824;12.092;2022-10-30T03:08:44;96721.66;;;16.30;58.88
16094;BME280;8151;47.824;12.092;2022-10-30T03:11:14;96720.19;;;16.21;59.37
16094;BME280;8151;47.824;12.092;2022-10-30T03:13:45;96729.56;;;16.10;59.86
16094;BME280;8151;47.824;12.092;2022-10-30T03:16:16;96722.69;;;16.01;60.24
16094;BME280;8151;47.824;12.092;2022-10-30T03:18:45;96723.47;;;15.94;60.54
16094;BME280;8151;47.824;12.092;2022-10-30T03:21:15;96725.88;;;15.89;60.63
16094;BME280;8151;47.824;12.092;2022-10-30T03:23:44;96728.19;;;15.92;60.36
16094;BME280;8151;47.824;12.092;2022-10-30T03:26:13;96732.50;;;15.93;60.30
16094;BME280;8151;47.824;12.092;2022-10-30T03:28:41;96731.31;;;15.96;60.03
16094;BME280;8151;47.824;12.092;2022-10-30T03:31:13;96733.38;;;16.01;59.62
16094;BME280;8151;47.824;12.092;2022-10-30T03:33:42;96736.50;;;16.04;59.72
16094;BME280;8151;47.824;12.092;2022-10-30T03:36:12;96730.16;;;16.05;59.36
16094;BME280;8151;47.824;12.092;2022-10-30T03:38:41;96732.59;;;16.07;59.22
16094;BME280;8151;47.824;12.092;2022-10-30T03:41:10;96734.06;;;16.09;59.47
16094;BME280;8151;47.824;12.092;2022-10-30T03:43:38;96734.25;;;16.08;59.39
16094;BME280;8151;47.824;12.092;2022-10-30T03:46:08;96732.41;;;16.08;59.30
16094;BME280;8151;47.824;12.092;2022-10-30T03:48:38;96729.31;;;16.05;59.13
16094;BME280;8151;47.824;12.092;2022-10-30T03:51:06;96739.97;;;16.05;59.34
16094;BME280;8151;47.824;12.092;2022-10-30T03:53:34;96736.69;;;16.03;59.68
16094;BME280;8151;47.824;12.092;2022-10-30T03:56:03;96735.22;;;16.00;59.55
16094;BME280;8151;47.824;12.092;2022-10-30T03:58:32;96738.50;;;15.96;59.59
16094;BME280;8151;47.824;12.092;2022-10-30T04:01:01;96733.72;;;15.91;59.81
16094;BME280;8151;47.824;12.092;2022-10-30T04:03:29;96734.47;;;15.85;60.18
16094;BME280;8151;47.824;12.092;2022-10-30T04:05:59;96744.06;;;15.79;60.44
16094;BME280;8151;47.824;12.092;2022-10-30T04:08:28;96747.22;;;15.68;60.83
16094;BME280;8151;47.824;12.092;2022-10-30T04:10:56;96755.34;;;15.60;61.28
16094;BME280;8151;47.824;12.092;2022-10-30T04:13:25;96756.69;;;15.49;61.61
16094;BME280;8151;47.824;12.092;2022-10-30T04:15:53;96757.88;;;15.46;61.75
16094;BME280;8151;47.824;12.092;2022-10-30T04:18:24;96759.00;;;15.37;62.18
16094;BME280;8151;47.824;12.092;2022-10-30T04:20:53;96760.22;;;15.34;62.06
16094;BME280;8151;47.824;12.092;2022-10-30T04:23:23;96754.91;;;15.34;62.36
16094;BME280;8151;47.824;12.092;2022-10-30T04:25:51;96764.75;;;15.34;62.22
16094;BME280;8151;47.824;12.092;2022-10-30T04:28:19;96762.25;;;15.32;62.23
16094;BME280;8151;47.824;12.092;2022-10-30T04:30:48;96774.94;;;15.30;62.11
16094;BME280;8151;47.824;12.092;2022-10-30T04:33:16;96764.66;;;15.27;62.42
16094;BME280;8151;47.824;12.092;2022-10-30T04:35:44;96771.13;;;15.18;62.29
16094;BME280;8151;47.824;12.092;2022-10-30T04:38:14;96765.34;;;15.14;62.68
16094;BME280;8151;47.824;12.092;2022-10-30T04:40:43;96757.34;;;15.14;62.51
16094;BME280;8151;47.824;12.092;2022-10-30T04:43:12;96753.47;;;15.17;62.17
16094;BME280;8151;47.824;12.092;2022-10-30T04:45:41;96747.56;;;15.22;61.93
16094;BME280;8151;47.824;12.092;2022-10-30T04:48:11;96753.34;;;15.25;61.67
16094;BME280;8151;47.824;12.092;2022-10-30T04:50:40;96758.50;;;15.27;61.36
16094;BME280;8151;47.824;12.092;2022-10-30T04:53:12;96758.13;;;15.30;61.48
16094;BME280;8151;47.824;12.092;2022-10-30T04:55:53;96756.75;;;15.34;61.07
16094;BME280;8151;47.824;12.092;2022-10-30T04:58:22;96754.31;;;15.39;61.02
16094;BME280;8151;47.824;12.092;2022-10-30T05:00:50;96750.47;;;15.42;60.73
16094;BME280;8151;47.824;12.092;2022-10-30T05:03:21;96753.13;;;15.42;60.71
16094;BME280;8151;47.824;12.092;2022-10-30T05:05:56;96751.66;;;15.39;60.94
16094;BME280;8151;47.824;12.092;2022-10-30T05:08:25;96748.34;;;15.37;61.02
16094;BME280;8151;47.824;12.092;2022-10-30T05:10:55;96740.13;;;15.32;60.96
16094;BME280;8151;47.824;12.092;2022-10-30T05:13:23;96743.97;;;15.29;60.87
16094;BME280;8151;47.824;12.092;2022-10-30T05:15:52;96747.03;;;15.26;61.11
16094;BME280;8151;47.824;12.092;2022-10-30T05:18:21;96734.63;;;15.19;61.55
16094;BME280;8151;47.824;12.092;2022-10-30T05:20:50;96740.31;;;15.15;61.57
16094;BME280;8151;47.824;12.092;2022-10-30T05:23:18;96737.03;;;15.13;61.83
16094;BME280;8151;47.824;12.092;2022-10-30T05:25:46;96739.81;;;15.05;61.81
16094;BME280;8151;47.824;12.092;2022-10-30T05:28:16;96728.88;;;15.00;61.86
16094;BME280;8151;47.824;12.092;2022-10-30T05:30:45;96723.28;;;14.95;62.25
16094;BME280;8151;47.824;12.092;2022-10-30T05:33:14;96726.31;;;14.92;61.94
16094;BME280;8151;47.824;12.092;2022-10-30T05:35:44;96728.06;;;14.85;62.20
16094;BME280;8151;47.824;12.092;2022-10-30T05:38:12;96726.44;;;14.84;62.09
16094;BME280;8151;47.824;12.092;2022-10-30T05:40:41;96727.88;;;14.86;61.85
16094;BME280;8151;47.824;12.092;2022-10-30T05:43:12;96734.25;;;14.85;62.05
16094;BME280;8151;47.824;12.092;2022-10-30T05:45:42;96730.31;;;14.81;62.06
16094;BME280;8151;47.824;12.092;2022-10-30T05:48:11;96741.50;;;14.76;61.94
16094;BME280;8151;47.824;12.092;2022-10-30T05:50:40;96738.19;;;14.74;61.96
16094;BME280;8151;47.824;12.092;2022-10-30T05:53:09;96742.53;;;14.75;62.18
16094;BME280;8151;47.824;12.092;2022-10-30T05:55:37;96747.47;;;14.79;62.09
16094;BME280;8151;47.824;12.092;2022-10-30T05:58:06;96754.06;;;14.83;61.89
16094;BME280;8151;47.824;12.092;2022-10-30T06:00:35;96753.72;;;14.86;61.61
16094;BME280;8151;47.824;12.092;2022-10-30T06:03:10;96753.16;;;14.90;61.62
16094;BME280;8151;47.824;12.092;2022-10-30T06:05:39;96753.34;;;14.89;61.33
16094;BME280;8151;47.824;12.092;2022-10-30T06:08:07;96758.69;;;14.89;61.72
16094;BME280;8151;47.824;12.092;2022-10-30T06:10:36;96759.69;;;14.88;61.65
16094;BME280;8151;47.824;12.092;2022-10-30T06:13:05;96763.91;;;14.82;61.84
16094;BME280;8151;47.824;12.092;2022-10-30T06:15:34;96770.63;;;14.78;61.61
16094;BME280;8151;47.824;12.092;2022-10-30T06:18:02;96765.13;;;14.65;62.00
16094;BME280;8151;47.824;12.092;2022-10-30T06:20:38;96758.09;;;14.49;62.66
16094;BME280;8151;47.824;12.092;2022-10-30T06:23:08;96771.84;;;14.37;62.74
16094;BME280;8151;47.824;12.092;2022-10-30T06:25:37;96780.88;;;14.36;62.66
16094;BME280;8151;47.824;12.092;2022-10-30T06:28:09;96765.28;;;14.48;62.49
16094;BME280;8151;47.824;12.092;2022-10-30T06:30:39;96771.25;;;14.65;62.06
16094;BME280;8151;47.824;12.092;2022-10-30T06:33:08;96751.97;;;14.78;61.71
16094;BME280;8151;47.824;12.092;2022-10-30T06:35:38;96758.47;;;14.90;61.55
16094;BME280;8151;47.824;12.092;2022-10-30T06:38:07;96760.22;;;14.98;61.39
16094;BME280;8151;47.824;12.092;2022-10-30T06:40:37;96764.16;;;15.02;61.23
16094;BME280;8151;47.824;12.092;2022-10-30T06:43:06;96770.78;;;15.06;61.24
16094;BME280;8151;47.824;12.092;2022-10-30T06:45:34;96770.41;;;15.09;61.61
16094;BME280;8151;47.824;12.092;2022-10-30T06:48:03;96766.53;;;15.12;61.51
16094;BME280;8151;47.824;12.092;2022-10-30T06:50:32;96775.38;;;15.12;61.46
16094;BME280;8151;47.824;12.092;2022-10-30T06:53:01;96769.66;;;15.15;61.27
16094;BME280;8151;47.824;12.092;2022-10-30T06:55:30;96774.97;;;15.15;61.38
16094;BME280;8151;47.824;12.092;2022-10-30T06:57:58;96778.66;;;15.14;61.51
16094;BME280;8151;47.824;12.092;2022-10-30T07:00:27;96769.19;;;15.12;61.81
16094;BME280;8151;47.824;12.092;2022-10-30T07:03:00;96773.88;;;15.10;61.94
16094;BME280;8151;47.824;12.092;2022-10-30T07:05:30;96776.75;;;15.08;62.10
16094;BME280;8151;47.824;12.092;2022-10-30T07:07:59;96774.09;;;15.08;62.31
16094;BME280;8151;47.824;12.092;2022-10-30T07:10:28;96767.56;;;15.11;62.14
16094;BME280;8151;47.824;12.092;2022-10-30T07:12:57;96762.56;;;15.23;61.73
16094;BME280;8151;47.824;12.092;2022-10-30T07:15:26;96780.75;;;15.34;61.25
16094;BME280;8151;47.824;12.092;2022-10-30T07:17:56;96770.78;;;15.43;60.98
16094;BME280;8151;47.824;12.092;2022-10-30T07:20:26;96769.19;;;15.48;61.00
16094;BME280;8151;47.824;12.092;2022-10-30T07:22:55;96771.09;;;15.54;60.90
16094;BME280;8151;47.824;12.092;2022-10-30T07:25:24;96770.34;;;15.61;60.56
16094;BME280;8151;47.824;12.092;2022-10-30T07:27:54;96771.41;;;15.66;60.65
16094;BME280;8151;47.824;12.092;2022-10-30T07:30:25;96764.72;;;15.70;60.70
16094;BME280;8151;47.824;12.092;2022-10-30T07:32:58;96774.84;;;15.75;60.36
16094;BME280;8151;47.824;12.092;2022-10-30T07:35:28;96759.91;;;15.81;59.97
16094;BME280;8151;47.824;12.092;2022-10-30T07:38:01;96764.47;;;15.87;59.94
16094;BME280;8151;47.824;12.092;2022-10-30T07:40:30;96764.50;;;15.93;60.11
16094;BME280;8151;47.824;12.092;2022-10-30T07:43:01;96772.78;;;15.99;59.97
16094;BME280;8151;47.824;12.092;2022-10-30T07:45:30;96757.03;;;16.04;59.83
16094;BME280;8151;47.824;12.092;2022-10-30T07:47:58;96776.56;;;16.11;59.61
16094;BME280;8151;47.824;12.092;2022-10-30T07:50:28;96764.75;;;16.20;59.68
16094;BME280;8151;47.824;12.092;2022-10-30T07:52:57;96762.31;;;16.25;59.34
16094;BME280;8151;47.824;12.092;2022-10-30T07:55:25;96770.78;;;16.29;59.13
16094;BME280;8151;47.824;12.092;2022-10-30T07:57:54;96765.47;;;16.36;58.97
16094;BME280;8151;47.824;12.092;2022-10-30T08:00:24;96760.38;;;16.41;59.06
16094;BME280;8151;47.824;12.092;2022-10-30T08:02:55;96757.94;;;16.46;58.95
16094;BME280;8151;47.824;12.092;2022-10-30T08:05:24;96763.06;;;16.47;58.93
16094;BME280;8151;47.824;12.092;2022-10-30T08:07:56;96771.53;;;16.51;58.61
16094;BME280;8151;47.824;12.092;2022-10-30T08:10:27;96763.31;;;16.52;58.66
16094;BME280;8151;47.824;12.092;2022-10-30T08:12:56;96773.41;;;16.57;58.38
16094;BME280;8151;47.824;12.092;2022-10-30T08:15:26;96768.31;;;16.62;58.42
16094;BME280;8151;47.824;12.092;2022-10-30T08:17:54;96762.59;;;16.65;58.22
16094;BME280;8151;47.824;12.092;2022-10-30T08:20:23;96772.88;;;16.68;58.23
16094;BME280;8151;47.824;12.092;2022-10-30T08:22:54;96757.72;;;16.76;58.13
16094;BME280;8151;47.824;12.092;2022-10-30T08:25:25;96758.97;;;16.80;57.97
16094;BME280;8151;47.824;12.092;2022-10-30T08:27:54;96760.06;;;16.85;57.91
16094;BME280;8151;47.824;12.092;2022-10-30T08:30:26;96764.16;;;16.88;57.63
16094;BME280;8151;47.824;12.092;2022-10-30T08:32:56;96768.94;;;16.92;57.67
16094;BME280;8151;47.824;12.092;2022-10-30T08:35:26;96757.81;;;16.96;57.77
16094;BME280;8151;47.824;12.092;2022-10-30T08:37:55;96763.00;;;17.04;57.49
16094;BME280;8151;47.824;12.092;2022-10-30T08:40:25;96753.34;;;17.09;57.44
16094;BME280;8151;47.824;12.092;2022-10-30T08:42:55;96749.88;;;17.16;57.35
16094;BME280;8151;47.824;12.092;2022-10-30T08:45:25;96764.72;;;17.25;57.30
16094;BME280;8151;47.824;12.092;2022-10-30T08:47:58;96754.69;;;17.34;57.08
16094;BME280;8151;47.824;12.092;2022-10-30T08:50:28;96755.31;;;17.42;57.03
16094;BME280;8151;47.824;12.092;2022-10-30T08:52:59;96755.56;;;17.47;57.06
16094;BME280;8151;47.824;12.092;2022-10-30T08:55:29;96756.16;;;17.49;56.96
16094;BME280;8151;47.824;12.092;2022-10-30T08:57:58;96754.94;;;17.52;56.97
16094;BME280;8151;47.824;12.092;2022-10-30T09:00:28;96751.84;;;17.55;56.94
16094;BME280;8151;47.824;12.092;2022-10-30T09:03:03;96746.94;;;17.59;56.90
16094;BME280;8151;47.824;12.092;2022-10-30T09:05:31;96740.75;;;17.65;56.80
16094;BME280;8151;47.824;12.092;2022-10-30T09:08:00;96746.72;;;17.74;56.87
16094;BME280;8151;47.824;12.092;2022-10-30T09:10:29;96736.66;;;17.82;56.73
16094;BME280;8151;47.824;12.092;2022-10-30T09:12:58;96731.13;;;17.90;56.70
16094;BME280;8151;47.824;12.092;2022-10-30T09:15:29;96734.44;;;17.99;56.54
16094;BME280;8151;47.824;12.092;2022-10-30T09:18:00;96744.31;;;18.05;56.44
16094;BME280;8151;47.824;12.092;2022-10-30T09:20:29;96741.63;;;18.12;56.24
16094;BME280;8151;47.824;12.092;2022-10-30T09:22:58;96738.13;;;18.18;56.07
16094;BME280;8151;47.824;12.092;2022-10-30T09:25:27;96734.63;;;18.24;55.87
16094;BME280;8151;47.824;12.092;2022-10-30T09:27:55;96738.13;;;18.32;55.86
16094;BME280;8151;47.824;12.092;2022-10-30T09:30:24;96731.72;;;18.39;55.64
16094;BME280;8151;47.824;12.092;2022-10-30T09:32:55;96734.41;;;18.46;55.56
16094;BME280;8151;47.824;12.092;2022-10-30T09:35:24;96730.25;;;18.50;55.48
16094;BME280;8151;47.824;12.092;2022-10-30T09:37:53;96745.31;;;18.58;55.35
16094;BME280;8151;47.824;12.092;2022-10-30T09:40:30;96743.19;;;18.66;55.17
16094;BME280;8151;47.824;12.092;2022-10-30T09:43:06;96748.56;;;18.73;55.11
16094;BME280;8151;47.824;12.092;2022-10-30T09:45:55;96760.31;;;18.79;54.60
16094;BME280;8151;47.824;12.092;2022-10-30T09:48:46;96746.28;;;18.83;54.67
16094;BME280;8151;47.824;12.092;2022-10-30T09:51:32;96742.56;;;18.91;54.50
16094;BME280;8151;47.824;12.092;2022-10-30T09:54:11;96744.38;;;18.97;54.50
16094;BME280;8151;47.824;12.092;2022-10-30T09:56:44;96751.38;;;19.05;54.17
16094;BME280;8151;47.824;12.092;2022-10-30T09:59:24;96747.63;;;19.13;54.11
16094;BME280;8151;47.824;12.092;2022-10-30T10:01:58;96728.19;;;19.17;53.83
16094;BME280;8151;47.824;12.092;2022-10-30T10:04:37;96735.63;;;19.22;53.65
16094;BME280;8151;47.824;12.092;2022-10-30T10:07:15;96737.22;;;19.30;53.74
16094;BME280;8151;47.824;12.092;2022-10-30T10:09:47;96750.41;;;19.38;53.79
16094;BME280;8151;47.824;12.092;2022-10-30T10:12:23;96734.88;;;19.46;53.52
16094;BME280;8151;47.824;12.092;2022-10-30T10:14:53;96738.31;;;19.54;53.34
16094;BME280;8151;47.824;12.092;2022-10-30T10:17:29;96740.13;;;19.60;53.06
16094;BME280;8151;47.824;12.092;2022-10-30T10:20:01;96737.22;;;19.68;52.95
16094;BME280;8151;47.824;12.092;2022-10-30T10:22:36;96728.72;;;19.78;52.71
16094;BME280;8151;47.824;12.092;2022-10-30T10:25:10;96730.31;;;19.85;52.73
16094;BME280;8151;47.824;12.092;2022-10-30T10:30:39;96729.34;;;20.05;52.55
16094;BME280;8151;47.824;12.092;2022-10-30T10:33:29;96727.78;;;20.16;52.44
16094;BME280;8151;47.824;12.092;2022-10-30T10:36:19;96726.25;;;20.26;52.21
16094;BME280;8151;47.824;12.092;2022-10-30T10:39:05;96721.19;;;20.37;52.35
16094;BME280;8151;47.824;12.092;2022-10-30T10:41:50;96720.25;;;20.50;52.01
16094;BME280;8151;47.824;12.092;2022-10-30T10:44:30;96709.81;;;20.60;51.98
16094;BME280;8151;47.824;12.092;2022-10-30T10:50:05;96705.13;;;20.74;51.46
16094;BME280;8151;47.824;12.092;2022-10-30T10:52:43;96707.97;;;20.79;51.68
16094;BME280;8151;47.824;12.092;2022-10-30T10:55:16;96702.28;;;20.87;51.63
16094;BME280;8151;47.824;12.092;2022-10-30T10:57:47;96711.69;;;20.96;51.61
16094;BME280;8151;47.824;12.092;2022-10-30T11:00:18;96701.69;;;21.03;51.40
16094;BME280;8151;47.824;12.092;2022-10-30T11:02:53;96709.66;;;21.10;51.29
16094;BME280;8151;47.824;12.092;2022-10-30T11:05:29;96705.22;;;21.16;51.07
16094;BME280;8151;47.824;12.092;2022-10-30T11:08:08;96700.00;;;21.21;51.32
16094;BME280;8151;47.824;12.092;2022-10-30T11:10:38;96703.56;;;21.33;51.14
16094;BME280;8151;47.824;12.092;2022-10-30T11:13:10;96697.44;;;21.45;50.84
16094;BME280;8151;47.824;12.092;2022-10-30T11:15:46;96696.28;;;21.52;50.74
16094;BME280;8151;47.824;12.092;2022-10-30T11:18:17;96693.03;;;21.62;50.64
16094;BME280;8151;47.824;12.092;2022-10-30T11:20:54;96686.22;;;21.71;50.58
16094;BME280;8151;47.824;12.092;2022-10-30T11:23:36;96686.03;;;21.85;50.32
16094;BME280;8151;47.824;12.092;2022-10-30T11:26:24;96687.56;;;21.92;49.67
16094;BME280;8151;47.824;12.092;2022-10-30T11:28:56;96686.41;;;22.00;49.79
16094;BME280;8151;47.824;12.092;2022-10-30T11:31:27;96683.38;;;22.08;49.62
16094;BME280;8151;47.824;12.092;2022-10-30T11:34:23;96683.84;;;22.05;48.98
16094;BME280;8151;47.824;12.092;2022-10-30T11:36:53;96687.91;;;21.96;49.51
16094;BME280;8151;47.824;12.092;2022-10-30T11:39:24;96679.13;;;21.89;49.31
16094;BME280;8151;47.824;12.092;2022-10-30T11:41:59;96671.16;;;21.94;48.95
16094;BME280;8151;47.824;12.092;2022-10-30T11:44:31;96670.59;;;22.03;48.83
16094;BME280;8151;47.824;12.092;2022-10-30T11:47:01;96677.72;;;22.10;48.84
16094;BME280;8151;47.824;12.092;2022-10-30T11:49:35;96676.22;;;22.14;48.85
16094;BME280;8151;47.824;12.092;2022-10-30T11:52:05;96674.38;;;22.26;48.91
16094;BME280;8151;47.824;12.092;2022-10-30T11:54:38;96666.38;;;22.31;49.27
16094;BME280;8151;47.824;12.092;2022-10-30T11:57:18;96668.84;;;22.33;49.27
16094;BME280;8151;47.824;12.092;2022-10-30T11:59:49;96660.19;;;22.31;49.40
16094;BME280;8151;47.824;12.092;2022-10-30T12:02:23;96659.25;;;22.25;49.52
16094;BME280;8151;47.824;12.092;2022-10-30T12:04:53;96658.28;;;22.19;49.82
16094;BME280;8151;47.824;12.092;2022-10-30T12:07:26;96659.72;;;22.10;49.89
16094;BME280;8151;47.824;12.092;2022-10-30T12:09:58;96659.34;;;22.07;50.02
16094;BME280;8151;47.824;12.092;2022-10-30T12:12:31;96659.22;;;22.01;50.13
16094;BME280;8151;47.824;12.092;2022-10-30T12:15:17;96659.72;;;21.98;49.85
16094;BME280;8151;47.824;12.092;2022-10-30T12:17:50;96652.22;;;22.00;49.94
16094;BME280;8151;47.824;12.092;2022-10-30T12:20:20;96649.63;;;22.17;49.51
16094;BME280;8151;47.824;12.092;2022-10-30T12:22:49;96649.53;;;22.36;49.03
16094;BME280;8151;47.824;12.092;2022-10-30T12:25:23;96647.50;;;22.55;48.38
16094;BME280;8151;47.824;12.092;2022-10-30T12:27:58;96643.63;;;22.63;48.31
16094;BME280;8151;47.824;12.092;2022-10-30T12:30:29;96633.41;;;22.65;48.29
16094;BME280;8151;47.824;12.092;2022-10-30T12:33:04;96634.09;;;22.72;48.21
16094;BME280;8151;47.824;12.092;2022-10-30T12:35:39;96635.75;;;22.73;48.30
16094;BME280;8151;47.824;12.092;2022-10-30T12:38:14;96636.31;;;22.75;48.13
16094;BME280;8151;47.824;12.092;2022-10-30T12:40:53;96632.19;;;22.84;48.15
16094;BME280;8151;47.824;12.092;2022-10-30T12:43:26;96635.44;;;22.98;48.14
16094;BME280;8151;47.824;12.092;2022-10-30T12:45:59;96629.78;;;23.11;48.09
16094;BME280;8151;47.824;12.092;2022-10-30T12:48:36;96627.00;;;23.23;47.75
16094;BME280;8151;47.824;12.092;2022-10-30T12:51:15;96630.97;;;23.32;47.69
16094;BME280;8151;47.824;12.092;2022-10-30T12:53:55;96619.19;;;23.38;47.42
16094;BME280;8151;47.824;12.092;2022-10-30T12:56:30;96627.34;;;23.44;47.49
16094;BME280;8151;47.824;12.092;2022-10-30T12:59:11;96618.31;;;23.50;47.08
16094;BME280;8151;47.824;12.092;2022-10-30T13:01:49;96625.41;;;23.56;47.16
16094;BME280;8151;47.824;12.092;2022-10-30T13:04:21;96626.56;;;23.60;47.13
16094;BME280;8151;47.824;12.092;2022-10-30T13:06:55;96616.09;;;23.64;46.95
16094;BME280;8151;47.824;12.092;2022-10-30T13:09:31;96614.22;;;23.64;46.87
16094;BME280;8151;47.824;12.092;2022-10-30T13:12:08;96611.75;;;23.63;46.91
16094;BME280;8151;47.824;12.092;2022-10-30T13:14:42;96614.38;;;23.57;46.99
16094;BME280;8151;47.824;12.092;2022-10-30T13:17:13;96610.84;;;23.57;46.59
16094;BME280;8151;47.824;12.092;2022-10-30T13:19:44;96612.50;;;23.58;46.58
16094;BME280;8151;47.824;12.092;2022-10-30T13:22:19;96609.47;;;23.54;46.37
16094;BME280;8151;47.824;12.092;2022-10-30T13:24:59;96611.91;;;23.56;46.28
16094;BME280;8151;47.824;12.092;2022-10-30T13:27:37;96604.97;;;23.60;46.12
16094;BME280;8151;47.824;12.092;2022-10-30T13:30:12;96605.34;;;23.69;45.91